createdAt,value
2018-03-22T00:01:39.355Z,7.97
2018-03-22T00:04:07.761Z,8.33
2018-03-22T00:06:35.388Z,8.60
2018-03-22T00:09:03.029Z,7.73
2018-03-22T00:11:30.669Z,7.67
2018-03-22T00:13:58.292Z,8.20
2018-03-22T00:16:26.657Z,8.77
2018-03-22T00:18:54.276Z,6.93
2018-03-22T00:21:21.896Z,9.80
2018-03-22T00:23:50.303Z,8.17
2018-03-22T00:26:17.947Z,7.77
2018-03-22T00:28:45.543Z,7.63
2018-03-22T00:33:58.246Z,7.33
2018-03-22T00:36:25.861Z,7.57
2018-03-22T00:38:53.492Z,8.27
2018-03-22T00:41:21.125Z,9.03
2018-03-22T00:43:48.743Z,7.77
2018-03-22T00:46:16.389Z,8.70
2018-03-22T00:48:43.980Z,8.90
2018-03-22T00:51:12.600Z,8.87
2018-03-22T00:53:40.183Z,8.97
2018-03-22T00:56:07.834Z,9.00
2018-03-22T00:58:35.436Z,9.00
2018-03-22T01:01:03.025Z,8.07
2018-03-22T01:03:30.632Z,8.97
2018-03-22T01:05:58.237Z,9.27
2018-03-22T01:08:25.863Z,8.53
2018-03-22T01:10:53.468Z,9.33
2018-03-22T01:13:21.100Z,9.07
2018-03-22T01:15:49.452Z,8.77
2018-03-22T01:18:17.080Z,9.63
2018-03-22T01:20:44.685Z,9.83
2018-03-22T01:23:12.277Z,8.30
2018-03-22T01:25:40.664Z,13.00
2018-03-22T01:28:08.289Z,10.07
2018-03-22T01:30:39.400Z,9.10
2018-03-22T01:33:07.004Z,11.30
2018-03-22T01:35:35.412Z,11.20
2018-03-22T01:38:02.991Z,10.57
2018-03-22T01:40:30.602Z,9.40
2018-03-22T01:42:58.955Z,10.47
2018-03-22T01:45:26.613Z,9.87
2018-03-22T01:47:54.204Z,10.73
2018-03-22T01:50:22.612Z,11.17
2018-03-22T01:53:01.858Z,10.97
2018-03-22T01:55:29.482Z,9.17
2018-03-22T01:57:57.834Z,9.97
2018-03-22T02:00:25.446Z,9.10
2018-03-22T02:02:53.021Z,9.77
2018-03-22T02:05:20.661Z,9.43
2018-03-22T02:07:48.279Z,9.17
2018-03-22T02:10:15.877Z,10.13
2018-03-22T02:12:43.501Z,8.70
2018-03-22T02:15:11.096Z,10.77
2018-03-22T02:17:38.718Z,10.17
2018-03-22T02:20:06.301Z,11.00
2018-03-22T02:22:34.672Z,11.50
2018-03-22T02:25:03.045Z,10.83
2018-03-22T02:27:31.423Z,10.80
2018-03-22T02:29:59.902Z,11.10
2018-03-22T02:32:28.293Z,11.20
2018-03-22T02:34:56.673Z,11.60
2018-03-22T02:37:24.288Z,11.20
2018-03-22T02:39:51.891Z,13.43
2018-03-22T02:42:20.266Z,12.27
2018-03-22T02:44:48.640Z,12.10
2018-03-22T02:47:17.019Z,11.20
2018-03-22T02:49:45.402Z,12.90
2018-03-22T02:52:13.777Z,13.23
2018-03-22T02:54:42.153Z,12.77
2018-03-22T02:57:10.547Z,13.67
2018-03-22T02:59:38.133Z,14.50
2018-03-22T03:02:05.742Z,15.07
2018-03-22T03:04:34.157Z,15.20
2018-03-22T03:07:01.772Z,14.90
2018-03-22T03:09:29.390Z,12.57
2018-03-22T03:11:56.994Z,12.90
2018-03-22T03:14:24.628Z,13.40
2018-03-22T03:16:52.249Z,15.33
2018-03-22T03:19:19.869Z,13.00
2018-03-22T03:21:47.511Z,13.33
2018-03-22T03:24:15.114Z,13.77
2018-03-22T03:26:43.494Z,13.57
2018-03-22T03:29:11.868Z,12.23
2018-03-22T03:31:40.226Z,12.30
2018-03-22T03:34:07.856Z,13.80
2018-03-22T03:36:35.476Z,15.40
2018-03-22T03:39:03.106Z,14.60
2018-03-22T03:41:30.727Z,14.40
2018-03-22T03:43:58.317Z,13.50
2018-03-22T03:46:25.940Z,14.40
2018-03-22T03:48:53.540Z,13.20
2018-03-22T03:51:21.157Z,13.70
2018-03-22T03:53:48.748Z,13.27
2018-03-22T03:56:16.357Z,13.30
2018-03-22T03:58:43.963Z,13.87
2018-03-22T04:01:11.574Z,11.83
2018-03-22T04:03:39.917Z,12.27
2018-03-22T04:06:07.525Z,13.80
2018-03-22T04:08:35.113Z,12.43
2018-03-22T04:11:02.743Z,13.90
2018-03-22T04:13:30.342Z,13.50
2018-03-22T04:15:57.953Z,11.90
2018-03-22T04:18:26.345Z,12.57
2018-03-22T04:20:53.948Z,15.10
2018-03-22T04:23:21.608Z,15.30
2018-03-22T04:25:49.216Z,12.80
2018-03-22T04:28:16.825Z,13.70
2018-03-22T04:30:44.431Z,14.50
2018-03-22T04:33:12.816Z,13.30
2018-03-22T04:35:40.485Z,9.33
2018-03-22T04:38:08.848Z,13.53
2018-03-22T04:40:37.237Z,13.80
2018-03-22T04:43:04.840Z,15.80
2018-03-22T04:45:32.431Z,16.23
2018-03-22T04:48:00.062Z,13.40
2018-03-22T04:50:27.660Z,14.77
2018-03-22T04:52:56.010Z,14.63
2018-03-22T04:55:24.696Z,16.00
2018-03-22T04:57:52.278Z,15.60
2018-03-22T05:00:19.927Z,15.70
2018-03-22T05:02:47.522Z,17.10
2018-03-22T05:05:15.150Z,16.40
2018-03-22T05:07:42.747Z,16.43
2018-03-22T05:10:10.374Z,13.40
2018-03-22T05:12:38.729Z,18.20
2018-03-22T05:15:06.362Z,18.33
2018-03-22T05:17:33.949Z,16.53
2018-03-22T05:20:01.566Z,14.80
2018-03-22T05:22:29.175Z,16.50
2018-03-22T05:24:56.821Z,17.30
2018-03-22T05:27:24.420Z,16.60
2018-03-22T05:29:52.802Z,18.73
2018-03-22T05:32:21.164Z,15.80
2018-03-22T05:34:48.754Z,15.73
2018-03-22T05:37:16.383Z,15.83
2018-03-22T05:39:43.976Z,14.27
2018-03-22T05:42:11.676Z,19.50
2018-03-22T05:44:39.282Z,18.80
2018-03-22T05:47:07.655Z,17.70
2018-03-22T05:49:36.014Z,14.63
2018-03-22T05:52:03.631Z,19.80
2018-03-22T05:54:31.222Z,19.30
2018-03-22T05:56:59.636Z,19.60
2018-03-22T05:59:28.009Z,14.40
2018-03-22T06:01:56.356Z,17.23
2018-03-22T06:04:23.978Z,16.30
2018-03-22T06:06:51.561Z,15.20
2018-03-22T06:09:19.184Z,17.37
2018-03-22T06:11:46.781Z,15.70
2018-03-22T06:14:14.413Z,15.30
2018-03-22T06:16:42.200Z,15.53
2018-03-22T06:19:09.887Z,16.83
2018-03-22T06:21:37.484Z,17.57
2018-03-22T06:24:05.886Z,17.00
2018-03-22T06:26:33.481Z,11.60
2018-03-22T06:29:01.095Z,15.97
2018-03-22T06:31:28.707Z,17.17
2018-03-22T06:33:56.376Z,12.43
2018-03-22T06:36:23.978Z,15.57
2018-03-22T06:38:51.615Z,14.47
2018-03-22T06:41:19.984Z,15.47
2018-03-22T06:43:48.329Z,13.77
2018-03-22T06:46:15.928Z,14.47
2018-03-22T06:48:44.276Z,14.00
2018-03-22T06:51:11.885Z,14.43
2018-03-22T06:53:39.463Z,9.10
2018-03-22T06:56:07.113Z,10.87
2018-03-22T06:58:34.710Z,10.40
2018-03-22T07:01:03.103Z,9.83
2018-03-22T07:03:30.688Z,9.37
2018-03-22T07:05:59.065Z,11.13
2018-03-22T07:08:27.440Z,12.37
2018-03-22T07:10:55.832Z,11.47
2018-03-22T07:13:23.430Z,11.40
2018-03-22T07:15:51.066Z,11.17
2018-03-22T07:18:18.659Z,9.90
2018-03-22T07:20:47.005Z,10.63
2018-03-22T07:23:14.616Z,11.60
2018-03-22T07:25:42.247Z,10.80
2018-03-22T07:28:09.856Z,10.07
2018-03-22T07:30:38.206Z,9.97
2018-03-22T07:33:05.821Z,6.40
2018-03-22T07:35:33.417Z,7.00
2018-03-22T07:38:01.035Z,8.90
2018-03-22T07:40:28.621Z,70.77
2018-03-22T07:43:01.832Z,62.40
2018-03-22T07:45:29.437Z,16.90
2018-03-22T07:47:57.099Z,10.47
2018-03-22T07:50:24.699Z,13.00
2018-03-22T07:52:52.330Z,13.53
2018-03-22T07:55:19.964Z,14.90
2018-03-22T07:57:48.321Z,18.33
2018-03-22T08:00:15.944Z,13.33
2018-03-22T08:02:43.540Z,14.23
2018-03-22T08:05:11.164Z,12.50
2018-03-22T08:07:38.759Z,15.00
2018-03-22T08:10:06.444Z,17.07
2018-03-22T08:12:34.817Z,19.83
2018-03-22T08:15:03.246Z,17.63
2018-03-22T08:17:30.828Z,17.00
2018-03-22T08:19:59.678Z,15.73
2018-03-22T08:22:28.123Z,17.47
2018-03-22T08:24:56.501Z,16.57
2018-03-22T08:27:24.080Z,14.37
2018-03-22T08:29:52.491Z,13.70
2018-03-22T08:32:20.078Z,15.47
2018-03-22T08:34:47.681Z,12.43
2018-03-22T08:37:15.306Z,14.03
2018-03-22T08:39:42.920Z,15.40
2018-03-22T08:42:10.542Z,11.57
2018-03-22T08:44:38.916Z,17.10
2018-03-22T08:47:07.299Z,16.70
2018-03-22T08:49:35.664Z,16.30
2018-03-22T08:52:03.342Z,16.93
2018-03-22T08:54:31.697Z,12.87
2018-03-22T08:56:59.342Z,16.83
2018-03-22T08:59:26.973Z,20.20
2018-03-22T09:01:54.657Z,18.90
2018-03-22T09:04:22.284Z,16.73
2018-03-22T09:06:50.725Z,22.13
2018-03-22T09:09:18.336Z,19.73
2018-03-22T09:11:45.954Z,19.77
2018-03-22T09:14:14.407Z,16.00
2018-03-22T09:16:42.181Z,20.00
2018-03-22T09:19:09.808Z,17.07
2018-03-22T09:21:37.409Z,24.63
2018-03-22T09:24:05.018Z,22.23
2018-03-22T09:29:34.957Z,24.97
2018-03-22T09:32:02.552Z,23.30
2018-03-22T09:34:30.189Z,20.37
2018-03-22T09:36:58.546Z,22.37
2018-03-22T09:39:26.925Z,21.97
2018-03-22T09:41:54.548Z,24.10
2018-03-22T09:44:22.949Z,25.47
2018-03-22T09:46:50.549Z,24.60
2018-03-22T09:49:18.183Z,24.70
2018-03-22T09:51:45.810Z,23.90
2018-03-22T09:54:14.187Z,26.90
2018-03-22T09:56:42.568Z,27.83
2018-03-22T09:59:10.925Z,29.87
2018-03-22T10:01:38.526Z,24.57
2018-03-22T10:04:06.136Z,49.40
2018-03-22T10:06:34.100Z,26.30
2018-03-22T10:09:01.796Z,29.30
2018-03-22T10:11:30.201Z,19.37
2018-03-22T10:13:57.800Z,32.03
2018-03-22T10:16:25.423Z,32.13
2018-03-22T10:18:53.037Z,26.10
2018-03-22T10:21:20.668Z,27.00
2018-03-22T10:23:48.276Z,34.50
2018-03-22T10:26:16.669Z,27.17
2018-03-22T10:28:45.026Z,28.97
2018-03-22T10:31:12.614Z,23.07
2018-03-22T10:33:40.223Z,27.73
2018-03-22T10:36:07.824Z,29.23
2018-03-22T10:38:36.192Z,24.53
2018-03-22T10:41:04.628Z,31.77
2018-03-22T10:43:32.225Z,33.40
2018-03-22T10:45:59.830Z,31.80
2018-03-22T10:48:27.516Z,32.47
2018-03-22T10:50:55.108Z,33.53
2018-03-22T10:53:23.523Z,32.80
2018-03-22T10:55:51.129Z,29.67
2018-03-22T10:58:18.730Z,33.67
2018-03-22T11:00:51.918Z,31.43
2018-03-22T11:03:25.289Z,32.83
2018-03-22T11:05:52.907Z,21.90
2018-03-22T11:08:20.532Z,31.50
2018-03-22T11:10:48.151Z,32.77
2018-03-22T11:13:16.540Z,28.63
2018-03-22T11:15:44.140Z,30.03
2018-03-22T11:18:11.713Z,34.37
2018-03-22T11:20:39.339Z,29.90
2018-03-22T11:23:07.771Z,25.30
2018-03-22T11:25:35.421Z,34.00
2018-03-22T11:28:03.013Z,30.73
2018-03-22T11:30:30.600Z,29.67
2018-03-22T11:32:58.969Z,33.73
2018-03-22T11:35:27.334Z,33.83
2018-03-22T11:37:55.791Z,32.30
2018-03-22T11:40:23.876Z,31.53
2018-03-22T11:42:51.560Z,32.40
2018-03-22T11:45:19.171Z,31.37
2018-03-22T11:47:46.819Z,28.00
2018-03-22T11:50:14.419Z,32.10
2018-03-22T11:52:42.175Z,37.40
2018-03-22T11:55:09.784Z,29.77
2018-03-22T11:57:37.420Z,34.40
2018-03-22T12:00:05.783Z,26.23
2018-03-22T12:02:33.406Z,34.17
2018-03-22T12:05:01.016Z,28.93
2018-03-22T12:07:28.648Z,34.80
2018-03-22T12:09:56.260Z,30.40
2018-03-22T12:12:23.961Z,31.90
2018-03-22T12:14:51.563Z,26.37
2018-03-22T12:17:19.943Z,30.80
2018-03-22T12:19:47.596Z,23.00
2018-03-22T12:22:15.184Z,30.57
2018-03-22T12:24:42.794Z,34.30
2018-03-22T12:27:10.401Z,26.63
2018-03-22T12:29:38.025Z,32.13
2018-03-22T12:32:05.619Z,30.47
2018-03-22T12:34:34.008Z,30.37
2018-03-22T12:37:01.626Z,30.90
2018-03-22T12:39:29.261Z,29.97
2018-03-22T12:41:56.867Z,32.67
2018-03-22T12:44:24.505Z,29.60
2018-03-22T12:46:52.160Z,21.40
2018-03-22T12:49:19.788Z,31.70
2018-03-22T12:51:47.392Z,30.77
2018-03-22T12:54:15.001Z,27.50
2018-03-22T12:56:42.658Z,29.50
2018-03-22T12:59:10.292Z,29.77
2018-03-22T13:01:38.646Z,26.57
2018-03-22T13:04:06.230Z,28.20
2018-03-22T13:06:34.636Z,39.97
2018-03-22T13:09:02.236Z,30.27
2018-03-22T13:11:29.877Z,32.50
2018-03-22T13:13:57.460Z,30.27
2018-03-22T13:16:25.089Z,23.37
2018-03-22T13:18:52.733Z,30.70
2018-03-22T13:21:20.371Z,29.90
2018-03-22T13:23:48.757Z,25.47
2018-03-22T13:26:16.403Z,30.03
2018-03-22T13:28:44.774Z,29.97
2018-03-22T13:31:13.620Z,29.87
2018-03-22T13:33:42.032Z,24.40
2018-03-22T13:36:09.663Z,30.27
2018-03-22T13:38:37.331Z,32.30
2018-03-22T13:41:04.910Z,31.43
2018-03-22T13:43:32.522Z,28.33
2018-03-22T13:46:00.113Z,26.67
2018-03-22T13:48:27.740Z,25.83
2018-03-22T13:50:55.330Z,21.10
2018-03-22T13:53:22.941Z,28.57
2018-03-22T13:55:51.338Z,28.50
2018-03-22T13:58:18.953Z,32.70
2018-03-22T14:00:46.568Z,27.97
2018-03-22T14:03:14.964Z,29.07
2018-03-22T14:05:42.592Z,31.40
2018-03-22T14:08:10.225Z,28.40
2018-03-22T14:10:37.826Z,27.23
2018-03-22T14:13:05.429Z,29.63
2018-03-22T14:15:33.065Z,30.77
2018-03-22T14:18:00.684Z,22.50
2018-03-22T14:20:28.310Z,30.47
2018-03-22T14:22:55.912Z,33.20
2018-03-22T14:25:23.520Z,29.40
2018-03-22T14:27:51.104Z,31.93
2018-03-22T14:30:19.500Z,32.27
2018-03-22T14:32:47.861Z,32.40
2018-03-22T14:35:15.496Z,32.80
2018-03-22T14:37:43.142Z,33.67
2018-03-22T14:40:10.766Z,34.40
2018-03-22T14:42:38.369Z,33.50
2018-03-22T14:45:06.063Z,33.00
2018-03-22T14:47:33.634Z,29.97
2018-03-22T14:50:01.986Z,31.00
2018-03-22T14:52:29.666Z,30.77
2018-03-22T14:54:57.236Z,33.80
2018-03-22T14:57:24.868Z,32.40
2018-03-22T14:59:52.472Z,30.80
2018-03-22T15:02:20.108Z,32.67
2018-03-22T15:04:48.489Z,32.30
2018-03-22T15:07:16.895Z,109.40
2018-03-22T15:09:44.548Z,32.90
2018-03-22T15:12:12.917Z,36.23
2018-03-22T15:14:40.536Z,30.83
2018-03-22T15:17:08.198Z,35.60
2018-03-22T15:19:35.810Z,38.00
2018-03-22T15:22:03.432Z,34.57
2018-03-22T15:24:31.074Z,36.37
2018-03-22T15:26:58.697Z,36.93
2018-03-22T15:29:26.314Z,38.33
2018-03-22T15:31:53.921Z,36.33
2018-03-22T15:34:21.556Z,36.67
2018-03-22T15:36:49.174Z,30.37
2018-03-22T15:39:16.804Z,35.00
2018-03-22T15:41:44.393Z,32.87
2018-03-22T15:44:12.017Z,30.80
2018-03-22T15:46:39.643Z,34.10
2018-03-22T15:49:08.058Z,35.80
2018-03-22T15:51:35.654Z,32.67
2018-03-22T15:54:03.290Z,32.90
2018-03-22T15:56:30.885Z,33.07
2018-03-22T15:58:58.473Z,30.67
2018-03-22T16:01:26.882Z,28.53
2018-03-22T16:03:54.498Z,32.70
2018-03-22T16:06:22.124Z,28.47
2018-03-22T16:08:49.748Z,31.20
2018-03-22T16:11:17.395Z,32.77
2018-03-22T16:13:45.804Z,31.27
2018-03-22T16:16:13.454Z,28.80
2018-03-22T16:18:41.047Z,31.20
2018-03-22T16:21:08.697Z,30.33
2018-03-22T16:23:36.326Z,33.00
2018-03-22T16:26:03.964Z,30.20
2018-03-22T16:28:32.370Z,29.83
2018-03-22T16:31:00.012Z,30.47
2018-03-22T16:33:28.435Z,33.80
2018-03-22T16:35:56.096Z,30.37
2018-03-22T16:38:23.737Z,50.20
2018-03-22T16:40:51.390Z,50.73
2018-03-22T16:43:19.054Z,34.23
2018-03-22T16:45:46.675Z,43.77
2018-03-22T16:48:14.323Z,32.80
2018-03-22T16:50:41.986Z,33.27
2018-03-22T16:53:09.648Z,34.40
2018-03-22T16:55:37.285Z,31.77
2018-03-22T16:58:04.916Z,31.93
2018-03-22T17:00:32.547Z,33.80
2018-03-22T17:03:00.184Z,36.17
2018-03-22T17:05:27.815Z,34.57
2018-03-22T17:07:55.458Z,34.87
2018-03-22T17:10:23.101Z,36.13
2018-03-22T17:12:51.491Z,34.47
2018-03-22T17:15:19.161Z,33.60
2018-03-22T17:17:46.811Z,33.20
2018-03-22T17:20:15.252Z,32.90
2018-03-22T17:22:43.846Z,33.20
2018-03-22T17:25:11.504Z,33.33
2018-03-22T17:27:39.136Z,43.93
2018-03-22T17:30:06.795Z,35.40
2018-03-22T17:32:34.444Z,31.40
2018-03-22T17:35:02.127Z,35.93
2018-03-22T17:37:29.777Z,30.50
2018-03-22T17:39:57.441Z,33.97
2018-03-22T17:42:25.086Z,31.60
2018-03-22T17:44:52.714Z,34.07
2018-03-22T17:47:21.118Z,30.60
2018-03-22T17:49:48.774Z,33.93
2018-03-22T17:52:16.421Z,32.10
2018-03-22T17:54:44.081Z,31.00
2018-03-22T17:57:12.508Z,28.60
2018-03-22T17:59:40.136Z,31.30
2018-03-22T18:02:07.795Z,27.00
2018-03-22T18:04:35.454Z,26.40
2018-03-22T18:07:03.124Z,26.63
2018-03-22T18:09:30.806Z,29.37
2018-03-22T18:11:58.489Z,27.77
2018-03-22T18:14:26.137Z,26.53
2018-03-22T18:16:53.934Z,27.50
2018-03-22T18:19:21.585Z,25.03
2018-03-22T18:21:49.299Z,27.87
2018-03-22T18:24:16.952Z,28.10
2018-03-22T18:26:44.590Z,28.00
2018-03-22T18:29:12.998Z,27.47
2018-03-22T18:31:40.675Z,25.30
2018-03-22T18:34:08.327Z,28.37
2018-03-22T18:36:35.984Z,26.80
2018-03-22T18:39:03.641Z,27.27
2018-03-22T18:41:31.269Z,29.30
2018-03-22T18:43:58.917Z,26.60
2018-03-22T18:46:26.569Z,27.17
2018-03-22T18:48:54.262Z,25.60
2018-03-22T18:51:25.340Z,26.60
2018-03-22T18:53:52.993Z,26.30
2018-03-22T18:56:20.685Z,30.50
2018-03-22T18:58:48.355Z,25.70
2018-03-22T19:01:16.029Z,28.17
2018-03-22T19:03:43.674Z,28.13
2018-03-22T19:06:11.337Z,25.70
2018-03-22T19:08:39.004Z,28.50
2018-03-22T19:11:06.850Z,28.20
2018-03-22T19:13:34.529Z,27.50
2018-03-22T19:16:02.213Z,29.07
2018-03-22T19:18:29.881Z,29.57
2018-03-22T19:20:58.291Z,28.90
2018-03-22T19:23:25.960Z,29.57
2018-03-22T19:25:53.637Z,31.80
2018-03-22T19:28:21.312Z,28.73
2018-03-22T19:30:48.962Z,28.80
2018-03-22T19:33:16.614Z,27.17
2018-03-22T19:35:44.265Z,34.60
2018-03-22T19:38:11.944Z,29.33
2018-03-22T19:40:39.596Z,31.47
2018-03-22T19:43:07.253Z,29.87
2018-03-22T19:45:34.922Z,29.07
2018-03-22T19:48:02.592Z,31.13
2018-03-22T19:50:30.340Z,29.43
2018-03-22T19:52:57.981Z,31.50
2018-03-22T19:55:26.681Z,31.13
2018-03-22T19:57:54.334Z,28.50
2018-03-22T20:00:24.011Z,28.13
2018-03-22T20:02:52.418Z,29.77
2018-03-22T20:05:20.079Z,30.03
2018-03-22T20:07:47.737Z,27.37
2018-03-22T20:10:15.423Z,29.90
2018-03-22T20:12:43.086Z,29.60
2018-03-22T20:15:10.761Z,30.70
2018-03-22T20:17:38.396Z,29.90
2018-03-22T20:20:06.112Z,30.70
2018-03-22T20:22:33.810Z,30.80
2018-03-22T20:25:01.511Z,29.33
2018-03-22T20:27:29.186Z,28.60
2018-03-22T20:29:56.828Z,27.43
2018-03-22T20:32:24.485Z,28.00
2018-03-22T20:34:52.132Z,29.97
2018-03-22T20:37:19.781Z,28.23
2018-03-22T20:39:47.460Z,27.33
2018-03-22T20:42:15.130Z,30.37
2018-03-22T20:44:42.742Z,30.50
2018-03-22T20:47:11.175Z,27.80
2018-03-22T20:49:38.837Z,32.63
2018-03-22T20:52:06.502Z,31.90
2018-03-22T20:54:34.145Z,30.03
2018-03-22T20:57:01.819Z,29.23
2018-03-22T20:59:29.467Z,29.53
2018-03-22T21:01:57.136Z,31.13
2018-03-22T21:04:24.803Z,33.23
2018-03-22T21:06:52.479Z,30.00
2018-03-22T21:09:20.216Z,32.83
2018-03-22T21:11:47.885Z,33.40
2018-03-22T21:14:15.487Z,32.53
2018-03-22T21:16:43.128Z,33.83
2018-03-22T21:19:10.796Z,32.77
2018-03-22T21:21:38.458Z,31.57
2018-03-22T21:24:06.125Z,31.47
2018-03-22T21:26:33.780Z,31.60
2018-03-22T21:29:01.441Z,32.77
2018-03-22T21:31:29.138Z,33.47
2018-03-22T21:33:57.723Z,33.27
2018-03-22T21:36:25.388Z,32.27
2018-03-22T21:38:53.052Z,30.17
2018-03-22T21:41:20.671Z,33.43
2018-03-22T21:44:00.313Z,34.93
2018-03-22T21:46:28.014Z,33.07
2018-03-22T21:48:56.683Z,33.20
2018-03-22T21:51:25.133Z,33.43
2018-03-22T21:53:52.815Z,33.57
2018-03-22T21:56:21.223Z,33.70
2018-03-22T21:58:48.879Z,34.73
2018-03-22T22:01:16.533Z,35.20
2018-03-22T22:03:44.197Z,35.53
2018-03-22T22:06:11.882Z,32.87
2018-03-22T22:08:39.509Z,33.13
2018-03-22T22:11:07.932Z,35.63
2018-03-22T22:13:35.564Z,30.83
2018-03-22T22:16:03.199Z,32.27
2018-03-22T22:18:31.617Z,34.37
2018-03-22T22:20:59.273Z,34.73
2018-03-22T22:23:26.945Z,33.50
2018-03-22T22:25:54.595Z,36.80
2018-03-22T22:28:22.253Z,32.27
2018-03-22T22:30:49.894Z,33.43
2018-03-22T22:33:18.326Z,36.20
2018-03-22T22:35:45.961Z,33.17
2018-03-22T22:38:13.605Z,33.97
2018-03-22T22:40:41.252Z,34.20
2018-03-22T22:43:11.702Z,32.70
2018-03-22T22:45:39.353Z,34.90
2018-03-22T22:48:07.061Z,32.60
2018-03-22T22:50:34.735Z,35.27
2018-03-22T22:53:03.360Z,34.67
2018-03-22T22:55:31.024Z,34.37
2018-03-22T22:57:58.690Z,35.47
2018-03-22T23:00:26.346Z,36.00
2018-03-22T23:02:54.005Z,35.80
2018-03-22T23:05:21.681Z,36.33
2018-03-22T23:07:49.338Z,34.73
2018-03-22T23:10:17.003Z,33.57
2018-03-22T23:12:44.696Z,34.63
2018-03-22T23:15:12.351Z,32.60
2018-03-22T23:17:41.925Z,32.00
2018-03-22T23:20:09.570Z,33.10
2018-03-22T23:22:37.960Z,36.80
2018-03-22T23:25:05.604Z,32.40
2018-03-22T23:27:34.014Z,34.03
2018-03-22T23:30:01.653Z,30.73
2018-03-22T23:32:30.062Z,34.87
2018-03-22T23:34:57.704Z,34.17
2018-03-22T23:37:25.366Z,32.40
2018-03-22T23:39:53.010Z,34.90
2018-03-22T23:42:21.425Z,34.20
2018-03-22T23:44:49.052Z,34.07
2018-03-22T23:47:17.463Z,34.17
2018-03-22T23:49:45.074Z,34.83
2018-03-22T23:52:13.492Z,33.63
2018-03-22T23:54:41.141Z,28.77
2018-03-22T23:57:08.810Z,31.40
2018-03-22T23:59:36.455Z,34.07
